Time;durP1;ratioP1;P1;durP2;ratioP2;P2;SDS_P1;SDS_P2;PMS_P1;PMS_P2;Temp;Humidity;BMP_temperature;BMP_pressure;BME280_temperature;BME280_humidity;BME280_pressure;Samples;Min_cycle;Max_cycle;Signal;HPM_P1;HPM_P2
2023/08/11 00:00:27;;;;;;;4.97;2.12;;;;;;;16.62;56.23;99644.81;4482630;32;34236;-87
2023/08/11 00:02:55;;;;;;;5.93;2.20;;;;;;;16.54;56.21;99645.72;4495337;31;33971;-84
2023/08/11 00:05:23;;;;;;;4.00;2.08;;;;;;;16.69;55.74;99650.03;4483220;32;33423;-86
2023/08/11 00:07:51;;;;;;;4.47;2.40;;;;;;;16.59;55.82;99642.19;4483004;31;34433;-86
2023/08/11 00:10:19;;;;;;;4.85;2.17;;;;;;;16.70;55.74;99636.03;4486169;31;34023;-87
2023/08/11 00:12:47;;;;;;;4.43;2.22;;;;;;;16.66;55.88;99639.56;4484575;31;33869;-85
2023/08/11 00:15:15;;;;;;;5.55;2.20;;;;;;;16.65;55.93;99642.19;4495387;31;33757;-83
2023/08/11 00:17:45;;;;;;;4.37;2.30;;;;;;;16.64;55.99;99640.47;4494565;31;34951;-84
2023/08/11 00:20:12;;;;;;;4.35;2.10;;;;;;;16.53;56.35;99641.38;4486988;31;34512;-86
2023/08/11 00:22:39;;;;;;;4.85;2.33;;;;;;;16.45;56.58;99640.53;4481519;31;34181;-88
2023/08/11 00:25:08;;;;;;;4.35;2.33;;;;;;;16.49;56.91;99646.62;4482743;31;33717;-84
2023/08/11 00:27:35;;;;;;;5.25;2.60;;;;;;;16.46;56.93;99644.88;4483780;31;34727;-85
2023/08/11 00:30:04;;;;;;;5.05;2.17;;;;;;;16.49;56.72;99644.00;4498684;31;33690;-85
2023/08/11 00:32:32;;;;;;;5.37;2.40;;;;;;;16.57;56.65;99641.34;4497917;31;33931;-84
2023/08/11 00:35:00;;;;;;;4.43;2.47;;;;;;;16.39;57.19;99637.91;4493047;31;33470;-84
2023/08/11 00:37:27;;;;;;;4.97;2.60;;;;;;;16.37;57.22;99636.19;4498126;31;33730;-87
2023/08/11 00:39:55;;;;;;;6.50;2.60;;;;;;;16.28;57.89;99637.06;4478695;31;34091;-85
2023/08/11 00:42:23;;;;;;;4.57;2.40;;;;;;;16.44;57.15;99633.56;4482583;31;34167;-86
2023/08/11 00:44:51;;;;;;;3.92;2.35;;;;;;;16.26;57.90;99641.47;4496460;31;33664;-84
2023/08/11 00:47:19;;;;;;;5.00;2.62;;;;;;;16.32;57.97;99638.81;4494669;31;34733;-86
2023/08/11 00:49:49;;;;;;;5.10;2.60;;;;;;;16.39;57.32;99635.31;4484451;31;34064;-86
2023/08/11 00:52:17;;;;;;;4.32;2.50;;;;;;;16.17;58.23;99634.47;4470762;31;34102;-87
2023/08/11 00:54:45;;;;;;;5.87;2.28;;;;;;;16.03;58.51;99626.69;4482149;31;33911;-86
2023/08/11 00:57:14;;;;;;;6.18;2.78;;;;;;;16.37;58.21;99623.97;4477147;31;35219;-86
2023/08/11 00:59:42;;;;;;;4.20;2.47;;;;;;;16.33;58.23;99627.50;4482985;31;33609;-87
2023/08/11 01:02:11;;;;;;;6.97;2.75;;;;;;;16.35;58.45;99630.09;4482428;31;34901;-88
2023/08/11 01:04:39;;;;;;;5.82;2.65;;;;;;;16.39;57.96;99634.44;4482525;31;33583;-87
2023/08/11 01:07:17;;;;;;;4.70;2.33;;;;;;;16.45;57.76;99623.97;4482159;31;34069;-87
2023/08/11 01:09:53;;;;;;;5.50;2.22;;;;;;;16.47;57.81;99622.19;4474209;31;34811;-86
2023/08/11 01:12:26;;;;;;;;;;;;;;;16.53;57.49;99632.66;4482516;31;33986;-86
2023/08/11 01:14:59;;;;;;;3.67;2.22;;;;;;;16.75;56.93;99625.59;4490905;31;33467;-87
2023/08/11 01:17:27;;;;;;;5.47;2.20;;;;;;;16.61;57.40;99622.13;4497090;31;32838;-88
2023/08/11 01:19:55;;;;;;;4.78;2.35;;;;;;;16.32;58.02;99623.09;4489493;31;34032;-88
2023/08/11 01:22:24;;;;;;;5.28;2.28;;;;;;;16.36;58.29;99619.59;4496393;31;34331;-87
2023/08/11 01:24:52;;;;;;;4.90;2.50;;;;;;;16.38;58.08;99612.63;4472714;31;33315;-85
2023/08/11 01:27:20;;;;;;;5.25;2.50;;;;;;;16.36;58.16;99618.75;4479571;31;34589;-88
2023/08/11 01:29:47;;;;;;;5.32;2.45;;;;;;;16.50;57.82;99617.81;4475344;31;34159;-85
2023/08/11 01:32:15;;;;;;;6.78;2.50;;;;;;;16.43;57.81;99621.31;4484145;32;33280;-88
2023/08/11 01:34:43;;;;;;;4.90;2.60;;;;;;;16.61;57.73;99620.37;4489798;31;33287;-87
2023/08/11 01:37:12;;;;;;;4.53;2.50;;;;;;;16.41;58.06;99617.88;4486834;31;33495;-86
2023/08/11 01:39:40;;;;;;;5.82;2.10;;;;;;;16.56;57.74;99621.31;4487289;31;34958;-87
2023/08/11 01:42:08;;;;;;;6.68;2.62;;;;;;;16.18;58.56;99620.56;4472315;32;32366;-86
2023/08/11 01:44:36;;;;;;;4.70;2.53;;;;;;;15.97;58.17;99625.81;4475261;32;33697;-86
2023/08/11 01:47:04;;;;;;;7.85;2.90;;;;;;;16.27;57.90;99630.13;4475189;32;34926;-88
2023/08/11 01:49:32;;;;;;;5.47;2.70;;;;;;;16.30;57.62;99625.75;4475346;32;33703;-87
2023/08/11 01:52:01;;;;;;;5.50;2.90;;;;;;;16.19;58.55;99622.28;4483543;32;34104;-85
2023/08/11 01:54:29;;;;;;;6.07;2.83;;;;;;;16.31;58.40;99621.38;4483613;32;33352;-86
2023/08/11 01:56:57;;;;;;;5.43;2.83;;;;;;;16.39;57.52;99619.59;4478749;32;32916;-87
2023/08/11 01:59:25;;;;;;;5.62;2.80;;;;;;;16.22;57.90;99622.28;4467324;32;35060;-85
2023/08/11 02:01:53;;;;;;;5.37;2.62;;;;;;;16.45;57.78;99616.97;4468333;32;33910;-86
2023/08/11 02:04:20;;;;;;;5.15;2.70;;;;;;;16.74;57.10;99622.13;4479932;32;34277;-88
2023/08/11 02:06:49;;;;;;;5.97;3.05;;;;;;;16.72;57.34;99629.06;4483482;32;34240;-85
2023/08/11 02:09:16;;;;;;;5.55;2.65;;;;;;;16.50;57.93;99627.41;4483810;32;34243;-87
2023/08/11 02:11:44;;;;;;;4.97;2.50;;;;;;;16.51;57.87;99630.00;4483560;32;34242;-87
2023/08/11 02:14:12;;;;;;;5.18;2.50;;;;;;;16.77;56.96;99631.69;4483551;31;33540;-86
2023/08/11 02:16:40;;;;;;;5.07;2.80;;;;;;;16.63;57.33;99628.22;4483734;31;33977;-88
2023/08/11 02:19:07;;;;;;;5.00;2.75;;;;;;;16.58;57.55;99636.09;4483882;32;34456;-85
2023/08/11 02:21:38;;;;;;;4.37;2.53;;;;;;;16.61;57.68;99635.22;4483184;32;33777;-86
2023/08/11 02:24:06;;;;;;;4.68;2.42;;;;;;;16.73;57.41;99627.31;4486690;31;34369;-86
2023/08/11 02:26:34;;;;;;;5.55;2.80;;;;;;;16.74;57.40;99626.47;4492791;31;34337;-86
2023/08/11 02:29:03;;;;;;;6.93;2.97;;;;;;;16.66;57.31;99630.84;4483415;31;35103;-87
2023/08/11 02:31:34;;;;;;;4.80;2.62;;;;;;;16.56;57.59;99637.00;4479203;31;33810;-88
2023/08/11 02:34:01;;;;;;;5.65;2.65;;;;;;;16.61;57.87;99635.22;4489882;31;33284;-87
2023/08/11 02:36:29;;;;;;;6.37;2.62;;;;;;;16.59;57.85;99634.34;4483491;32;33567;-86
2023/08/11 02:38:56;;;;;;;5.62;2.92;;;;;;;16.60;57.52;99633.50;4484777;31;34175;-88
2023/08/11 02:41:25;;;;;;;5.50;3.00;;;;;;;16.50;57.72;99643.13;4489371;31;34704;-85
2023/08/11 02:43:53;;;;;;;4.45;3.00;;;;;;;16.52;57.77;99638.75;4484569;31;34441;-88
2023/08/11 02:46:22;;;;;;;6.07;3.08;;;;;;;16.40;58.21;99633.56;4493117;31;34670;-88
2023/08/11 02:48:50;;;;;;;4.47;2.85;;;;;;;16.55;57.60;99638.72;4485828;31;35156;-88
2023/08/11 02:51:18;;;;;;;5.50;2.92;;;;;;;16.31;58.47;99634.47;4495046;31;33820;-85
2023/08/11 02:53:46;;;;;;;6.10;3.00;;;;;;;16.38;58.65;99636.19;4486262;31;33829;-86
2023/08/11 02:56:15;;;;;;;5.30;3.03;;;;;;;16.28;58.55;99639.69;4488619;31;33837;-85
2023/08/11 02:58:42;;;;;;;4.97;2.97;;;;;;;16.20;58.31;99639.72;4483642;31;33913;-86
2023/08/11 03:01:10;;;;;;;6.87;2.65;;;;;;;16.14;58.83;99644.09;4483441;31;33644;-85
2023/08/11 03:03:39;;;;;;;4.90;2.60;;;;;;;16.05;59.44;99639.75;4483071;31;33102;-85
2023/08/11 03:06:07;;;;;;;5.70;2.65;;;;;;;16.25;58.56;99642.31;4486819;31;33968;-86
2023/08/11 03:08:35;;;;;;;4.10;2.47;;;;;;;16.18;58.67;99643.22;4483775;31;35063;-86
2023/08/11 03:11:03;;;;;;;4.78;2.80;;;;;;;16.13;59.00;99650.19;4484984;31;34929;-87
2023/08/11 03:13:30;;;;;;;5.47;3.05;;;;;;;16.00;58.64;99647.59;4496599;31;33538;-85
2023/08/11 03:15:58;;;;;;;5.85;2.90;;;;;;;16.07;58.66;99647.62;4490844;31;34041;-87
2023/08/11 03:18:27;;;;;;;4.95;3.03;;;;;;;16.04;58.72;99654.56;4493605;31;34455;-87
2023/08/11 03:20:55;;;;;;;4.37;2.70;;;;;;;16.09;58.22;99649.34;4487140;31;34685;-85
2023/08/11 03:23:40;;;;;;;5.37;2.70;;;;;;;16.24;57.89;99651.03;4486706;31;33462;-86
2023/08/11 03:26:09;;;;;;;6.50;2.62;;;;;;;16.14;57.82;99654.53;4484537;31;33365;-87
2023/08/11 03:28:37;;;;;;;4.75;2.72;;;;;;;15.85;58.73;99652.84;4492854;31;33834;-87
2023/08/11 03:31:06;;;;;;;7.15;3.08;;;;;;;16.19;57.99;99647.59;4484630;31;34670;-86
2023/08/11 03:33:34;;;;;;;5.60;3.15;;;;;;;16.07;58.03;99658.06;4485511;31;34085;-86
2023/08/11 03:36:02;;;;;;;6.47;2.70;;;;;;;16.09;58.25;99653.69;4479962;32;34481;-86
2023/08/11 03:38:30;;;;;;;5.78;3.15;;;;;;;16.04;58.34;99656.31;4483223;31;34296;-86
2023/08/11 03:40:58;;;;;;;6.35;3.10;;;;;;;15.92;58.71;99654.59;4488016;31;34587;-86
2023/08/11 03:43:25;;;;;;;4.82;2.90;;;;;;;15.90;59.10;99656.31;4486201;31;33292;-86
2023/08/11 03:45:54;;;;;;;6.93;3.00;;;;;;;15.66;60.10;99651.13;4483495;31;33524;-87
2023/08/11 03:48:22;;;;;;;5.32;3.40;;;;;;;16.03;58.91;99659.81;4485944;31;34629;-86
2023/08/11 03:50:50;;;;;;;7.18;3.28;;;;;;;15.91;59.37;99660.72;4486154;31;33942;-86
2023/08/11 03:53:17;;;;;;;6.82;3.30;;;;;;;15.89;59.60;99665.06;4484062;31;33474;-87
2023/08/11 03:55:45;;;;;;;6.32;3.35;;;;;;;15.90;59.13;99663.31;4481258;31;34882;-85
2023/08/11 03:58:14;;;;;;;6.85;3.20;;;;;;;16.02;59.49;99663.28;4486747;31;35334;-85
2023/08/11 04:00:44;;;;;;;6.10;3.60;;;;;;;15.72;60.21;99657.25;4490212;31;34171;-86
2023/08/11 04:03:12;;;;;;;6.53;3.17;;;;;;;15.78;60.21;99656.34;4487092;31;33425;-86
2023/08/11 04:05:39;;;;;;;6.53;2.97;;;;;;;15.88;59.65;99663.31;4485916;31;33973;-85
2023/08/11 04:08:07;;;;;;;5.85;3.12;;;;;;;15.97;59.40;99660.69;4488848;31;34250;-86
2023/08/11 04:10:35;;;;;;;5.97;3.08;;;;;;;16.18;58.62;99670.25;4473166;31;33816;-86
2023/08/11 04:13:03;;;;;;;7.45;3.50;;;;;;;16.20;59.16;99665.00;4484819;31;34415;-87
2023/08/11 04:15:31;;;;;;;6.50;2.90;;;;;;;16.24;58.63;99666.75;4493602;31;34429;-85
2023/08/11 04:17:59;;;;;;;5.47;3.25;;;;;;;16.21;58.75;99669.34;4491928;31;34033;-86
2023/08/11 04:20:28;;;;;;;5.18;3.20;;;;;;;15.97;60.05;99676.38;4488599;31;33896;-88
2023/08/11 04:22:56;;;;;;;7.78;3.25;;;;;;;16.20;59.57;99684.19;4498105;31;33342;-86
2023/08/11 04:25:24;;;;;;;5.22;3.37;;;;;;;16.16;59.51;99686.81;4474206;32;34134;-85
2023/08/11 04:27:51;;;;;;;7.00;3.40;;;;;;;16.44;58.82;99690.22;4485859;31;34007;-88
2023/08/11 04:30:19;;;;;;;5.78;3.10;;;;;;;16.49;58.83;99689.37;4486175;31;33603;-85
2023/08/11 04:32:47;;;;;;;5.78;3.17;;;;;;;16.85;57.91;99682.28;4492290;31;33159;-86
2023/08/11 04:35:15;;;;;;;6.75;3.22;;;;;;;16.81;58.43;99685.78;4474647;31;34627;-88
2023/08/11 04:37:43;;;;;;;5.37;2.92;;;;;;;17.13;56.99;99679.53;4482739;31;34343;-89
2023/08/11 04:40:13;;;;;;;5.82;3.03;;;;;;;17.71;55.43;99679.13;4485005;31;34846;-85
2023/08/11 04:42:41;;;;;;;5.93;2.92;;;;;;;17.95;54.16;99681.56;4498633;31;33724;-87
2023/08/11 04:45:10;;;;;;;7.10;3.20;;;;;;;18.52;53.02;99683.63;4484205;31;34400;-85
2023/08/11 04:47:39;;;;;;;6.47;2.83;;;;;;;18.56;52.46;99685.34;4496578;31;34115;-86
2023/08/11 04:50:11;;;;;;;5.60;2.80;;;;;;;19.25;50.79;99675.75;4488749;31;34023;-88
2023/08/11 04:52:39;;;;;;;5.00;2.75;;;;;;;19.24;50.85;99685.34;4487789;32;33542;-86
2023/08/11 04:55:07;;;;;;;8.05;3.17;;;;;;;19.25;50.17;99687.13;4487378;32;33652;-86
2023/08/11 04:57:35;;;;;;;6.62;3.47;;;;;;;19.08;50.80;99691.72;4488390;31;33932;-88
2023/08/11 05:00:06;;;;;;;5.60;2.80;;;;;;;19.54;49.82;99694.56;4483037;32;34005;-85
2023/08/11 05:02:34;;;;;;;5.57;2.83;;;;;;;19.83;48.86;99696.78;4476856;32;34027;-88
2023/08/11 05:05:03;;;;;;;5.68;2.45;;;;;;;20.36;47.70;99697.59;4486336;32;34465;-88
2023/08/11 05:07:31;;;;;;;5.65;2.50;;;;;;;20.42;47.89;99700.12;4486971;32;33813;-86
2023/08/11 05:09:58;;;;;;;5.32;3.17;;;;;;;20.31;48.10;99699.44;4486917;31;33838;-89
2023/08/11 05:12:26;;;;;;;4.62;2.28;;;;;;;20.79;47.24;99702.03;4487717;32;33035;-86
2023/08/11 05:14:54;;;;;;;4.30;2.50;;;;;;;21.10;46.50;99701.41;4487224;32;34746;-86
2023/08/11 05:17:22;;;;;;;5.50;2.70;;;;;;;21.22;46.49;99706.44;4484541;32;34966;-88
2023/08/11 05:19:49;;;;;;;4.78;2.47;;;;;;;21.03;46.55;99710.38;4486872;32;33877;-88
2023/08/11 05:22:17;;;;;;;5.25;2.20;;;;;;;20.93;46.72;99716.72;4487232;32;33476;-87
2023/08/11 05:24:44;;;;;;;5.47;2.65;;;;;;;21.78;45.54;99712.22;4486897;31;34885;-89
2023/08/11 05:27:14;;;;;;;5.72;2.58;;;;;;;21.57;45.53;99712.72;4486939;32;34912;-89
2023/08/11 05:29:47;;;;;;;5.00;2.28;;;;;;;21.50;46.05;99716.38;4485992;32;32691;-88
2023/08/11 05:32:14;;;;;;;4.95;2.58;;;;;;;21.74;44.88;99720.22;4474959;32;34376;-87
2023/08/11 05:34:42;;;;;;;5.62;2.90;;;;;;;21.33;45.95;99728.19;4486990;32;34055;-89
2023/08/11 05:37:10;;;;;;;5.00;2.35;;;;;;;21.76;45.05;99723.69;4486435;32;35385;-90
2023/08/11 05:39:41;;;;;;;8.30;2.90;;;;;;;21.39;46.23;99716.63;4486732;31;34156;-87
2023/08/11 05:42:09;;;;;;;8.15;2.67;;;;;;;20.87;47.56;99725.59;4486652;32;34328;-87
2023/08/11 05:44:36;;;;;;;5.00;2.53;;;;;;;21.05;47.21;99724.38;4487144;32;34653;-87
2023/08/11 05:47:05;;;;;;;6.05;2.47;;;;;;;21.20;46.57;99726.69;4486272;32;34880;-88
2023/08/11 05:49:34;;;;;;;5.32;2.22;;;;;;;20.16;48.83;99728.69;4489005;31;33980;-87
2023/08/11 05:52:01;;;;;;;5.80;2.97;;;;;;;20.93;47.23;99722.00;4488113;31;33066;-88
2023/08/11 05:54:29;;;;;;;5.32;2.50;;;;;;;20.63;49.07;99725.19;4485840;32;34516;-89
2023/08/11 05:56:57;;;;;;;4.18;2.03;;;;;;;20.31;49.91;99725.78;4483519;32;35257;-89
2023/08/11 05:59:26;;;;;;;5.97;2.65;;;;;;;20.74;48.95;99718.87;4484187;32;34378;-88
2023/08/11 06:01:53;;;;;;;5.05;2.75;;;;;;;20.91;49.11;99735.22;4480778;31;34321;-89
2023/08/11 06:04:21;;;;;;;4.90;2.75;;;;;;;20.93;48.21;99736.03;4483970;31;34134;-89
2023/08/11 06:06:48;;;;;;;4.62;2.50;;;;;;;20.94;48.28;99734.25;4477278;32;33724;-90
2023/08/11 06:09:16;;;;;;;8.18;3.30;;;;;;;20.75;49.41;99742.53;4468537;32;33959;-88
2023/08/11 06:11:45;;;;;;;7.25;2.78;;;;;;;20.22;49.96;99739.09;4483198;32;33405;-89
2023/08/11 06:14:12;;;;;;;6.62;2.72;;;;;;;20.45;50.64;99751.00;4483604;32;34045;-86
2023/08/11 06:16:40;;;;;;;4.68;2.25;;;;;;;20.49;50.50;99750.94;4494322;31;34452;-90
2023/08/11 06:19:07;;;;;;;5.62;2.42;;;;;;;20.79;50.13;99757.37;4498841;31;33982;-86
2023/08/11 06:21:35;;;;;;;4.55;2.62;;;;;;;20.82;50.06;99754.69;4483859;32;33978;-87
2023/08/11 06:24:03;;;;;;;5.40;2.22;;;;;;;21.20;48.14;99742.50;4484086;32;33890;-88
2023/08/11 06:26:31;;;;;;;8.82;2.78;;;;;;;21.37;47.73;99745.69;4483384;32;35015;-87
2023/08/11 06:28:59;;;;;;;4.60;2.12;;;;;;;20.87;49.76;99749.31;4483735;32;33892;-89
2023/08/11 06:31:26;;;;;;;7.20;2.87;;;;;;;21.10;48.60;99748.84;4484008;31;33629;-89
2023/08/11 06:33:54;;;;;;;5.32;2.47;;;;;;;21.25;48.30;99752.94;4484018;32;34094;-89
2023/08/11 06:36:22;;;;;;;5.80;2.22;;;;;;;21.14;49.19;99751.44;4483720;32;33693;-90
2023/08/11 06:38:51;;;;;;;5.35;2.17;;;;;;;20.98;49.66;99754.38;4482861;32;33780;-89
2023/08/11 06:41:19;;;;;;;4.55;2.72;;;;;;;21.31;48.44;99753.69;4483592;31;34326;-87
2023/08/11 06:43:47;;;;;;;3.60;2.10;;;;;;;21.41;47.58;99745.62;4483424;32;33530;-89
2023/08/11 06:46:15;;;;;;;8.57;2.67;;;;;;;21.71;47.98;99754.63;4483459;32;33532;-87
2023/08/11 06:48:43;;;;;;;6.32;2.50;;;;;;;21.26;48.49;99758.22;4483550;32;34026;-88
2023/08/11 06:51:10;;;;;;;4.65;2.40;;;;;;;21.87;48.58;99759.47;4486003;31;33128;-89
2023/08/11 06:53:37;;;;;;;4.25;2.35;;;;;;;22.26;47.03;99756.78;4491963;31;35332;-90
2023/08/11 06:56:05;;;;;;;6.53;2.45;;;;;;;22.16;46.99;99759.69;4482457;31;33956;-89
2023/08/11 06:58:33;;;;;;;6.80;2.80;;;;;;;22.44;46.73;99759.88;4483470;32;33593;-90
2023/08/11 07:01:00;;;;;;;5.10;2.37;;;;;;;22.41;46.04;99765.22;4483503;32;33381;-87
2023/08/11 07:03:28;;;;;;;7.15;2.65;;;;;;;22.34;47.18;99769.81;4483533;32;34673;-86
2023/08/11 07:05:55;;;;;;;3.83;1.95;;;;;;;22.70;45.66;99764.47;4482872;32;33935;-88
2023/08/11 07:08:23;;;;;;;6.85;2.50;;;;;;;22.83;45.91;99765.84;4482182;32;34564;-87
2023/08/11 07:10:51;;;;;;;5.32;2.00;;;;;;;22.95;45.79;99762.03;4481083;31;32750;-89
2023/08/11 07:13:18;;;;;;;4.35;2.33;;;;;;;23.11;45.34;99762.44;4477157;32;34392;-89
2023/08/11 07:15:46;;;;;;;4.18;2.00;;;;;;;23.02;45.81;99761.81;4484005;31;34002;-91
2023/08/11 07:18:14;;;;;;;5.32;2.12;;;;;;;23.36;44.65;99766.13;4483354;32;34257;-91
2023/08/11 07:20:42;;;;;;;4.15;2.10;;;;;;;23.65;45.76;99764.37;4483353;32;33753;-90
2023/08/11 07:23:10;;;;;;;6.40;2.10;;;;;;;22.91;44.69;99779.75;4483900;31;35413;-89
2023/08/11 07:25:38;;;;;;;3.80;2.15;;;;;;;22.74;45.02;99769.62;4481800;32;33826;-88
2023/08/11 07:28:06;;;;;;;8.60;2.62;;;;;;;23.51;44.79;99762.13;4483605;32;34572;-90
2023/08/11 07:30:33;;;;;;;6.65;1.90;;;;;;;23.46;43.59;99769.38;4483366;32;33737;-90
2023/08/11 07:33:02;;;;;;;4.82;2.25;;;;;;;23.50;43.12;99765.72;4483359;32;34759;-90
2023/08/11 07:35:30;;;;;;;4.32;2.30;;;;;;;23.88;43.30;99761.03;4483183;32;33488;-88
2023/08/11 07:37:58;;;;;;;4.57;1.83;;;;;;;24.18;43.02;99760.00;4483516;31;33937;-88
2023/08/11 07:40:25;;;;;;;5.45;2.30;;;;;;;24.16;43.21;99761.84;4483054;32;33485;-89
2023/08/11 07:42:53;;;;;;;5.62;2.25;;;;;;;24.04;43.85;99764.91;4482998;32;33490;-88
2023/08/11 07:45:20;;;;;;;7.37;2.90;;;;;;;24.16;44.29;99772.44;4482017;32;34954;-88
2023/08/11 07:47:48;;;;;;;6.60;2.70;;;;;;;24.14;43.26;99768.97;4482637;32;34525;-89
2023/08/11 07:50:16;;;;;;;5.50;2.67;;;;;;;23.70;45.12;99768.62;4483004;32;33996;-89
2023/08/11 07:52:43;;;;;;;7.40;2.53;;;;;;;23.82;45.14;99777.09;4488268;31;35158;-88
2023/08/11 07:55:11;;;;;;;4.90;2.22;;;;;;;24.07;44.33;99778.03;4487481;31;34340;-88
2023/08/11 07:57:39;;;;;;;6.53;2.45;;;;;;;24.00;44.55;99779.16;4483726;32;34147;-89
2023/08/11 08:00:13;;;;;;;4.85;2.30;;;;;;;24.30;43.93;99777.28;4482590;32;33394;-89
2023/08/11 08:02:45;;;;;;;4.65;2.28;;;;;;;24.12;43.79;99784.06;4478789;31;34697;-87
2023/08/11 08:05:13;;;;;;;4.95;2.50;;;;;;;23.69;45.14;99779.28;4483059;32;34295;-89
2023/08/11 08:07:41;;;;;;;5.57;2.70;;;;;;;23.24;46.00;99788.50;4482867;31;34866;-89
2023/08/11 08:10:10;;;;;;;5.30;2.80;;;;;;;23.15;45.42;99783.50;4482353;31;33488;-88
2023/08/11 08:12:38;;;;;;;4.00;2.25;;;;;;;23.52;45.30;99788.56;4479512;32;34704;-88
2023/08/11 08:15:07;;;;;;;5.45;2.58;;;;;;;24.15;44.65;99786.59;4483019;32;34126;-87
2023/08/11 08:17:35;;;;;;;4.43;2.40;;;;;;;23.97;43.96;99793.34;4469264;32;34596;-87
2023/08/11 08:20:13;;;;;;;4.95;2.20;;;;;;;23.93;45.17;99793.50;4481017;31;33080;-88
2023/08/11 08:22:41;;;;;;;6.97;2.37;;;;;;;23.64;45.50;99795.28;4474911;32;34162;-87
2023/08/11 08:25:09;;;;;;;4.65;2.40;;;;;;;23.89;45.17;99791.88;4483179;32;34184;-89
2023/08/11 08:27:39;;;;;;;5.55;2.40;;;;;;;23.52;46.03;99793.88;4480281;32;33778;-88
2023/08/11 08:30:11;;;;;;;4.43;2.62;;;;;;;23.68;45.91;99791.66;4473831;32;33114;-89
2023/08/11 08:32:40;;;;;;;4.90;2.12;;;;;;;23.64;45.98;99787.34;4466072;31;33598;-89
2023/08/11 08:35:10;;;;;;;5.12;2.80;;;;;;;23.75;46.42;99779.97;4481548;32;34395;-88
2023/08/11 08:37:38;;;;;;;5.55;2.17;;;;;;;23.63;46.55;99780.28;4482836;32;33792;-89
2023/08/11 08:40:08;;;;;;;5.97;2.97;;;;;;;23.94;47.12;99784.62;4482620;32;33230;-88
2023/08/11 08:42:37;;;;;;;5.90;3.05;;;;;;;23.50;47.23;99798.31;4482518;32;34850;-88
2023/08/11 08:45:05;;;;;;;5.45;2.37;;;;;;;23.57;47.28;99784.91;4482546;31;34987;-88
2023/08/11 08:47:34;;;;;;;5.70;2.30;;;;;;;23.89;46.21;99779.50;4482737;32;34123;-91
2023/08/11 08:50:04;;;;;;;3.95;2.37;;;;;;;24.14;45.36;99790.19;4474643;31;33243;-90
2023/08/11 08:52:32;;;;;;;6.05;2.40;;;;;;;24.21;45.39;99788.19;4467538;31;34644;-89
2023/08/11 08:55:01;;;;;;;4.87;2.12;;;;;;;24.08;45.93;99790.38;4468478;31;34151;-87
2023/08/11 08:57:28;;;;;;;4.80;2.83;;;;;;;23.97;45.53;99798.66;4474630;32;35374;-88
2023/08/11 08:59:56;;;;;;;4.57;2.58;;;;;;;24.37;45.09;99788.53;4478319;31;33244;-88
2023/08/11 09:02:27;;;;;;;4.43;2.62;;;;;;;24.31;45.51;99794.03;4478507;32;33722;-86
2023/08/11 09:04:56;;;;;;;6.10;2.67;;;;;;;24.50;44.78;99789.88;4482264;32;34173;-88
2023/08/11 09:07:24;;;;;;;5.93;2.40;;;;;;;24.22;44.10;99790.78;4481997;32;34780;-87
2023/08/11 09:09:51;;;;;;;5.62;2.25;;;;;;;23.83;45.49;99787.66;4482056;32;32906;-87
2023/08/11 09:12:19;;;;;;;6.53;2.33;;;;;;;23.96;45.60;99791.62;4481985;32;35040;-87
2023/08/11 09:14:47;;;;;;;4.43;2.53;;;;;;;24.16;46.00;99790.97;4481008;31;34094;-87
2023/08/11 09:17:15;;;;;;;6.18;2.72;;;;;;;24.88;44.20;99787.66;4480812;32;34281;-87
2023/08/11 09:19:44;;;;;;;5.12;2.50;;;;;;;24.66;44.06;99793.75;4485029;31;33482;-87
2023/08/11 09:22:11;;;;;;;5.12;2.53;;;;;;;24.97;43.21;99798.81;4488117;31;33509;-84
2023/08/11 09:24:40;;;;;;;6.15;2.22;;;;;;;24.03;44.36;99794.97;4481914;32;34763;-85
2023/08/11 09:27:09;;;;;;;4.82;2.37;;;;;;;24.38;44.37;99792.91;4466798;32;34360;-86
2023/08/11 09:29:37;;;;;;;5.03;2.33;;;;;;;24.70;44.99;99798.03;4466480;32;33857;-87
2023/08/11 09:32:04;;;;;;;4.20;2.35;;;;;;;24.87;44.08;99784.16;4468692;32;34080;-87
2023/08/11 09:34:33;;;;;;;4.72;2.50;;;;;;;24.64;43.60;99792.94;4477974;32;35164;-88
2023/08/11 09:37:01;;;;;;;4.90;2.40;;;;;;;24.83;43.81;99782.53;4473334;31;33422;-87
2023/08/11 09:39:32;;;;;;;8.38;2.10;;;;;;;24.70;45.43;99792.72;4485340;31;33208;-88
2023/08/11 09:42:00;;;;;;;5.37;2.40;;;;;;;24.73;43.63;99789.94;4483963;32;34437;-88
2023/08/11 09:44:28;;;;;;;4.80;2.15;;;;;;;25.04;43.72;99780.00;4473272;31;34763;-88
2023/08/11 09:46:56;;;;;;;6.75;2.33;;;;;;;25.19;43.74;99783.03;4483586;32;33791;-88
2023/08/11 09:49:24;;;;;;;6.07;2.20;;;;;;;25.17;43.10;99784.84;4483717;32;33513;-88
2023/08/11 09:51:55;;;;;;;3.85;2.17;;;;;;;25.19;41.54;99775.06;4483891;32;34773;-88
2023/08/11 09:54:23;;;;;;;4.82;2.17;;;;;;;25.54;42.20;99766.66;4481157;32;33670;-87
2023/08/11 09:56:51;;;;;;;3.42;1.75;;;;;;;25.79;41.23;99774.56;4482990;32;34639;-86
2023/08/11 09:59:20;;;;;;;4.37;1.90;;;;;;;25.32;40.95;99777.25;4460222;32;32062;-86
2023/08/11 10:01:48;;;;;;;3.53;1.70;;;;;;;25.37;41.40;99767.31;4484118;31;33905;-87
2023/08/11 10:04:34;;;;;;;3.30;1.75;;;;;;;25.32;42.76;99777.25;4476633;32;34335;-86
2023/08/11 10:07:03;;;;;;;5.43;1.98;;;;;;;24.71;42.76;99783.84;4484724;31;33100;-86
2023/08/11 10:09:32;;;;;;;5.05;2.12;;;;;;;24.87;42.55;99784.16;4484656;31;33777;-87
2023/08/11 10:12:00;;;;;;;3.70;1.92;;;;;;;24.84;43.22;99778.09;4492892;31;33686;-88
2023/08/11 10:14:28;;;;;;;5.07;1.70;;;;;;;24.86;43.14;99774.47;4467234;31;33111;-89
2023/08/11 10:16:59;;;;;;;4.72;2.30;;;;;;;25.03;41.92;99775.62;4461165;32;33667;-87
2023/08/11 10:19:27;;;;;;;6.30;1.98;;;;;;;25.13;42.27;99769.97;4480199;32;33767;-86
2023/08/11 10:21:55;;;;;;;4.32;1.98;;;;;;;25.50;41.76;99760.62;4469781;32;33933;-89
2023/08/11 10:24:25;;;;;;;3.90;1.77;;;;;;;25.85;41.03;99763.69;4473589;32;34230;-87
2023/08/11 10:26:53;;;;;;;6.18;1.83;;;;;;;25.63;40.48;99756.53;4484165;32;33512;-85
2023/08/11 10:29:21;;;;;;;3.92;2.08;;;;;;;25.34;41.36;99770.06;4475962;32;34196;-85
2023/08/11 10:31:56;;;;;;;5.15;1.95;;;;;;;25.57;40.50;99770.06;4465965;32;34076;-86
2023/08/11 10:34:24;;;;;;;;;;;;;;;25.39;42.39;99773.44;4466641;32;34113;-86
2023/08/11 10:36:56;;;;;;;7.30;2.28;;;;;;;25.48;41.19;99773.06;4467133;32;34077;-85
2023/08/11 10:39:25;;;;;;;13.50;5.28;;;;;;;24.99;42.78;99764.28;4468023;32;34352;-86
2023/08/11 10:41:56;;;;;;;6.50;1.90;;;;;;;25.06;43.85;99764.91;4468307;32;33734;-84
2023/08/11 10:44:27;;;;;;;3.20;1.73;;;;;;;25.26;42.55;99757.09;4468222;32;33945;-85
2023/08/11 10:46:59;;;;;;;5.35;2.30;;;;;;;25.32;39.84;99761.31;4475330;32;34850;-85
2023/08/11 10:49:33;;;;;;;5.72;2.35;;;;;;;25.14;42.54;99755.78;4483843;32;33479;-85
2023/08/11 10:52:02;;;;;;;3.80;2.10;;;;;;;25.39;40.71;99758.38;4483996;32;34121;-85
2023/08/11 10:54:31;;;;;;;4.35;2.10;;;;;;;25.81;41.75;99757.63;4482551;32;34268;-85
2023/08/11 10:57:02;;;;;;;4.35;1.95;;;;;;;25.78;41.55;99748.87;4483888;32;33939;-84
2023/08/11 10:59:31;;;;;;;5.37;1.77;;;;;;;25.77;39.85;99752.47;4482614;32;33248;-85
2023/08/11 11:02:01;;;;;;;7.50;2.45;;;;;;;26.08;41.14;99758.28;4483515;32;33982;-84
2023/08/11 11:04:31;;;;;;;4.12;1.80;;;;;;;26.03;39.89;99747.00;4483599;32;34867;-85
2023/08/11 11:06:59;;;;;;;5.12;2.40;;;;;;;25.85;39.26;99755.72;4483783;32;33397;-85
2023/08/11 11:09:28;;;;;;;4.15;1.70;;;;;;;25.84;38.23;99756.66;4483570;32;32989;-85
2023/08/11 11:11:56;;;;;;;4.50;1.90;;;;;;;25.98;39.49;99751.63;4482333;32;34687;-85
2023/08/11 11:14:24;;;;;;;5.00;2.10;;;;;;;25.64;37.72;99747.63;4483439;32;35051;-84
2023/08/11 11:16:58;;;;;;;3.70;1.85;;;;;;;25.87;40.80;99746.75;4483415;32;34656;-84
2023/08/11 11:19:27;;;;;;;8.00;2.30;;;;;;;26.37;38.63;99748.25;4483493;32;33531;-84
2023/08/11 11:21:55;;;;;;;3.60;1.70;;;;;;;26.17;39.30;99752.59;4482382;32;34811;-85
2023/08/11 11:24:23;;;;;;;3.95;1.90;;;;;;;25.92;40.09;99752.75;4482441;32;33553;-85
2023/08/11 11:26:50;;;;;;;3.10;1.73;;;;;;;25.77;40.83;99749.81;4483590;32;33904;-84
2023/08/11 11:29:23;;;;;;;3.83;1.90;;;;;;;25.62;39.25;99749.50;4482849;32;33680;-83
2023/08/11 11:31:51;;;;;;;4.62;1.85;;;;;;;25.67;40.00;99746.66;4466280;32;33953;-83
2023/08/11 11:34:21;;;;;;;4.40;2.03;;;;;;;25.58;39.74;99742.59;4481103;32;33885;-82
2023/08/11 11:36:49;;;;;;;3.65;1.67;;;;;;;25.36;39.73;99741.69;4481923;32;34659;-86
2023/08/11 11:39:18;;;;;;;3.70;1.77;;;;;;;25.39;38.76;99745.09;4479520;32;31995;-83